Strona główna
METAR-TAF:

METAR-TAF

Lotnisko :

Port lotniczy Gloucester

Gloucester, Anglia

Szerokość geograficzna: 51-54N, Długość geograficzna: 002-10W, wysokość: 29 m

Aktualna obserwacja pogody

Raport powstał 32 minut temu, godzina 15:20 UTC
Wiatr 2 kt od zachód
Temperatura 9°C
Wilgotność 81%
Ciśnienie 1014 hPa
Widzialność 10 km lub więcej
Mało chmury na wysokości 1400 ft

METAR: EGBJ 251520Z 28002KT 9999 FEW014 09/06 Q1014

czas: 15:52 (15:52 UTC)

Prognoza

Raport powstał 1 godzina i 53 minut temu, godzina 13:59 UTC
Prognoza ważna od 25 godzina 15 UTC do 25 godzina 20 UTC
Wiatr 5 kt od północny zachód
Widzialność 10 km lub więcej
Rozproszone chmury na wysokości 1500 ft
Prawdopodobieństwo 40% :
Przejściowo
od 25 godzina 15 UTC do 25 godzina 17 UTC
Przerywane chmury na wysokości 1400 ft

TAF: EGBJ 251359Z 2515/2520 32005KT 9999 SCT015 PROB40 TEMPO 2515/2517 BKN014

Obserwacja i prognoza pogody dla ponad 4000 lotnisk (raport METAR i TAF).

Dostępne stacje oznaczono żółtymi i czerwonymi punktami na mapie.

Najedź kursorem aby zobaczyć nazwę stacji.

Kliknij aby zobaczyć obserwacje i prognozy pogody.

Aby zmienić mapę: kliknij na zielony przycisk z czarnym krzyżykiem, aby powiększyć; na zielony przycisk z myślnikiem, aby pomniejszyć; na zielone strzałki, aby przejść do map sąsiednich.


METAR-TAF: